St. Stephen, Canada
Current Conditions -  °F | °C
As of 8:37 AM on Thursday 29 Jan 2015 (Local Time) from CYFC Reporting Station
Clear Clear  
Wind Chill: -4°   Ceiling: Unl
Heat Index: -4°   Visibility: 7mi
Dew Point: -6°   Wind: 2mph
Humidity: 92%   Direction: 230°SW
Pressure: 30.26"   Gusts: NA
Location:  45.19°N, 67.28°W
Report Text: CYFC 291237Z AUTO 23002KT 7SM R09/2600VP6000FT/ CLR M20/M21 A3026 RMK SLP250
Loading
Personal Weather Stations






























Interactive Weather Map New forecast layout! Learn more

10-Day Weather Forecast

Advertisements
Track Severe Weather on mobile